Terminal Aerodrome Forecast
Issued by NWS

Home | Current Version | Previous Version | Text Only | Print | Product List | Glossary Off
Versions: 1 2 3 4 5 6 7 8 9 10 11 12 13

000
FTUS43 KICT 281120
TAFCNU
TAF
KCNU 281120Z 2812/2912 22007KT P6SM SKC
     FM282000 22010KT P6SM SCT060
     FM282200 24007KT P6SM VCTS SCT050CB BKN080
     FM290400 VRB05KT P6SM SCT100 BKN200=

USA.gov is the U.S. government's official web portal to all federal, state and local government web resources and services.